Time;durP1;ratioP1;P1;durP2;ratioP2;P2;SDS_P1;SDS_P2;PMS_P1;PMS_P2;Temp;Humidity;BMP_temperature;BMP_pressure;BME280_temperature;BME280_humidity;BME280_pressure;Samples;Min_cycle;Max_cycle;Signal;HPM_P1;HPM_P2
2024/04/16 00:02:07;;;;;;;7.60;5.53;;;6.60;1.00;;;;;;5312998;26;20306;-80
2024/04/16 00:04:36;;;;;;;7.10;5.17;;;6.50;1.00;;;;;;5316483;27;20311;-78
2024/04/16 00:07:02;;;;;;;6.27;4.90;;;6.50;1.00;;;;;;5311344;27;20251;-78
2024/04/16 00:09:31;;;;;;;6.60;5.60;;;6.60;1.00;;;;;;5319139;26;20244;-79
2024/04/16 00:11:58;;;;;;;7.93;5.17;;;6.50;1.00;;;;;;5314661;27;20252;-79
2024/04/16 00:14:27;;;;;;;7.20;5.40;;;6.60;1.00;;;;;;5306612;27;20836;-78
2024/04/16 00:16:56;;;;;;;8.33;5.20;;;6.60;1.00;;;;;;5308971;27;20294;-78
2024/04/16 00:19:24;;;;;;;6.70;4.93;;;6.60;1.00;;;;;;5314891;27;20248;-79
2024/04/16 00:21:50;;;;;;;7.47;5.50;;;6.60;1.00;;;;;;5301722;27;20248;-80
2024/04/16 00:24:19;;;;;;;8.63;5.93;;;6.50;1.00;;;;;;5314232;27;20300;-80
2024/04/16 00:26:45;;;;;;;8.93;6.50;;;6.50;1.00;;;;;;5310224;27;20247;-78
2024/04/16 00:29:13;;;;;;;8.87;6.13;;;6.50;1.00;;;;;;5302906;27;20248;-81
2024/04/16 00:31:39;;;;;;;9.43;6.67;;;6.60;1.00;;;;;;5309184;27;20252;-80
2024/04/16 00:34:10;;;;;;;8.17;5.77;;;6.50;1.00;;;;;;5315366;27;20255;-79
2024/04/16 00:36:36;;;;;;;7.47;5.30;;;6.60;1.00;;;;;;5304282;27;20255;-80
2024/04/16 00:39:07;;;;;;;7.53;6.07;;;6.50;1.00;;;;;;5315615;27;20659;-80
2024/04/16 00:41:33;;;;;;;8.73;6.00;;;6.50;1.00;;;;;;5301648;27;20247;-78
2024/04/16 00:44:02;;;;;;;6.17;5.20;;;6.50;92.50;;;;;;5301814;27;20602;-79
2024/04/16 00:46:28;;;;;;;6.97;5.20;;;6.40;99.90;;;;;;5312443;27;20248;-79
2024/04/16 00:48:57;;;;;;;7.80;5.10;;;6.40;99.90;;;;;;5311750;27;20290;-80
2024/04/16 00:51:25;;;;;;;6.17;4.90;;;6.40;99.90;;;;;;5313105;26;20294;-80
2024/04/16 00:53:54;;;;;;;9.23;5.50;;;6.40;99.90;;;;;;5314365;26;20276;-81
2024/04/16 00:56:21;;;;;;;8.10;5.20;;;6.40;1.00;;;;;;5317045;27;20313;-78
2024/04/16 00:58:50;;;;;;;7.40;5.27;;;6.40;1.00;;;;;;5316437;27;20282;-79
2024/04/16 01:01:16;;;;;;;5.87;4.70;;;6.30;1.00;;;;;;5319102;27;20726;-81
2024/04/16 01:03:44;;;;;;;9.20;4.97;;;6.30;1.00;;;;;;5316453;27;20349;-80
2024/04/16 01:06:11;;;;;;;6.47;4.67;;;6.30;1.00;;;;;;5323039;26;20264;-77
2024/04/16 01:08:42;;;;;;;8.87;4.30;;;6.30;1.00;;;;;;5306766;27;20753;-78
2024/04/16 01:11:08;;;;;;;6.43;3.67;;;6.20;1.00;;;;;;5314397;27;20780;-80
2024/04/16 01:13:36;;;;;;;5.80;3.30;;;6.10;1.00;;;;;;5301093;27;20245;-82
2024/04/16 01:16:03;;;;;;;5.77;3.50;;;6.20;1.00;;;;;;5318034;27;20282;-81
2024/04/16 01:18:31;;;;;;;4.50;3.20;;;6.10;1.00;;;;;;5307045;27;20248;-81
2024/04/16 01:20:57;;;;;;;3.30;3.00;;;6.10;1.00;;;;;;5312947;27;20243;-80
2024/04/16 01:23:28;;;;;;;2.70;2.50;;;6.10;1.00;;;;;;5318558;27;20306;-78
2024/04/16 01:25:54;;;;;;;3.10;2.50;;;6.00;1.00;;;;;;5310143;26;20245;-80
2024/04/16 01:28:23;;;;;;;3.03;2.33;;;5.90;1.00;;;;;;5315958;27;20248;-81
2024/04/16 01:30:49;;;;;;;3.53;2.33;;;5.90;1.00;;;;;;5311645;27;20294;-81
2024/04/16 01:33:18;;;;;;;2.17;1.80;;;5.90;99.90;;;;;;5304806;27;20260;-81
2024/04/16 01:35:44;;;;;;;2.97;1.80;;;5.70;99.90;;;;;;5308820;27;20282;-78
2024/04/16 01:38:12;;;;;;;2.53;1.90;;;5.70;99.90;;;;;;5316348;27;20294;-78
2024/04/16 01:40:41;;;;;;;1.80;1.70;;;5.70;99.90;;;;;;5316696;27;20306;-82
2024/04/16 01:43:10;;;;;;;3.07;2.20;;;5.70;99.90;;;;;;5317128;27;20255;-81
2024/04/16 01:45:36;;;;;;;2.83;1.90;;;5.70;1.00;;;;;;5303261;27;20251;-79
2024/04/16 01:48:05;;;;;;;2.70;2.30;;;5.70;1.00;;;;;;5318174;27;20235;-81
2024/04/16 01:50:31;;;;;;;2.73;2.13;;;5.70;99.90;;;;;;5309475;27;20236;-79
2024/04/16 01:52:59;;;;;;;2.40;2.20;;;5.70;1.00;;;;;;5318201;27;20272;-78
2024/04/16 01:55:25;;;;;;;5.43;2.70;;;5.70;99.90;;;;;;5312782;27;20235;-79
2024/04/16 01:57:56;;;;;;;2.97;2.67;;;5.80;1.00;;;;;;5318777;27;20299;-79
2024/04/16 02:00:22;;;;;;;2.53;2.33;;;5.80;1.00;;;;;;5308326;26;20244;-79
2024/04/16 02:02:51;;;;;;;3.20;2.40;;;5.90;1.00;;;;;;5319237;27;20871;-82
2024/04/16 02:05:17;;;;;;;4.67;2.67;;;5.90;1.00;;;;;;5314659;27;20294;-81
2024/04/16 02:07:46;;;;;;;2.73;2.10;;;6.00;1.00;;;;;;5311361;27;20338;-77
2024/04/16 02:10:13;;;;;;;2.47;2.10;;;6.00;99.90;;;;;;5311817;27;20583;-79
2024/04/16 02:12:42;;;;;;;2.97;2.37;;;6.00;1.00;;;;;;5317475;27;20247;-77
2024/04/16 02:15:10;;;;;;;2.93;2.50;;;6.00;1.00;;;;;;5310366;27;20247;-81
2024/04/16 02:17:40;;;;;;;3.30;2.43;;;6.00;1.00;;;;;;5312723;27;20248;-82
2024/04/16 02:20:07;;;;;;;3.37;2.40;;;6.00;1.00;;;;;;5314562;27;20252;-78
2024/04/16 02:22:36;;;;;;;2.60;2.37;;;6.00;1.00;;;;;;5318034;27;20235;-81
2024/04/16 02:25:02;;;;;;;3.70;2.67;;;6.00;1.00;;;;;;5317559;27;20240;-81
2024/04/16 02:27:31;;;;;;;3.43;2.50;;;5.90;1.00;;;;;;5313199;26;20302;-80
2024/04/16 02:29:57;;;;;;;3.50;2.60;;;6.00;1.00;;;;;;5302268;27;20748;-79
2024/04/16 02:32:28;;;;;;;4.13;2.87;;;6.00;1.00;;;;;;5309761;27;20247;-81
2024/04/16 02:34:54;;;;;;;3.40;3.00;;;6.00;1.00;;;;;;5310062;27;20290;-81
2024/04/16 02:37:23;;;;;;;3.80;3.50;;;6.00;1.00;;;;;;5317179;27;20614;-80
2024/04/16 02:39:49;;;;;;;4.10;3.70;;;6.00;1.00;;;;;;5316818;26;20292;-79
2024/04/16 02:42:17;;;;;;;4.37;3.80;;;5.90;1.00;;;;;;5312723;27;20248;-81
2024/04/16 02:44:43;;;;;;;5.77;3.80;;;5.90;1.00;;;;;;5316094;27;20738;-80
2024/04/16 02:47:12;;;;;;;8.10;3.80;;;5.90;99.90;;;;;;5307708;26;20299;-81
2024/04/16 02:49:40;;;;;;;5.53;4.13;;;5.80;84.80;;;;;;5316875;27;20306;-81
2024/04/16 02:52:09;;;;;;;7.43;4.47;;;5.80;99.90;;;;;;5318438;27;20734;-79
2024/04/16 02:54:35;;;;;;;7.03;4.93;;;5.80;1.00;;;;;;5311372;27;20286;-81
2024/04/16 02:57:03;;;;;;;8.70;5.07;;;5.70;1.00;;;;;;5319466;27;20252;-79
2024/04/16 02:59:29;;;;;;;7.57;5.10;;;5.80;1.00;;;;;;5311697;26;20244;-80
2024/04/16 03:01:58;;;;;;;12.27;5.37;;;5.80;1.00;;;;;;5319040;27;20295;-80
2024/04/16 03:04:24;;;;;;;10.27;5.57;;;5.70;1.00;;;;;;5315265;27;20808;-81
2024/04/16 03:06:55;;;;;;;8.97;6.80;;;5.70;1.00;;;;;;5309780;27;20303;-79
2024/04/16 03:09:22;;;;;;;10.93;6.20;;;5.70;1.00;;;;;;5315975;27;20833;-78
2024/04/16 03:11:52;;;;;;;12.13;6.60;;;5.70;1.00;;;;;;5318468;27;20741;-80
2024/04/16 03:14:18;;;;;;;12.60;6.80;;;5.80;1.00;;;;;;5316311;27;20243;-80
2024/04/16 03:16:46;;;;;;;12.03;6.70;;;5.80;1.00;;;;;;5313050;27;20302;-81
2024/04/16 03:19:12;;;;;;;15.90;7.50;;;5.80;1.00;;;;;;5316755;27;20322;-81
2024/04/16 03:21:41;;;;;;;10.97;6.53;;;5.90;99.90;;;;;;5316366;26;20623;-80
2024/04/16 03:24:10;;;;;;;13.37;8.17;;;5.90;99.90;;;;;;5314690;27;20294;-81
2024/04/16 03:26:38;;;;;;;13.53;7.43;;;6.00;89.60;;;;;;5316694;27;20278;-80
2024/04/16 03:29:04;;;;;;;12.87;7.83;;;6.00;99.90;;;;;;5313231;27;20272;-81
2024/04/16 03:31:33;;;;;;;13.27;7.10;;;6.00;99.90;;;;;;5312443;27;20241;-79
2024/04/16 03:33:59;;;;;;;12.13;6.60;;;6.10;1.00;;;;;;5317851;27;20247;-82
2024/04/16 03:36:27;;;;;;;12.97;7.60;;;6.10;1.00;;;;;;5315250;27;20716;-81
2024/04/16 03:38:56;;;;;;;13.00;6.93;;;6.20;1.00;;;;;;5318464;27;20243;-82
2024/04/16 03:41:28;;;;;;;13.07;6.33;;;6.20;1.00;;;;;;5318831;27;20239;-80
2024/04/16 03:43:54;;;;;;;11.57;6.17;;;6.30;1.00;;;;;;5318576;27;20239;-83
2024/04/16 03:46:22;;;;;;;14.13;7.50;;;6.40;1.00;;;;;;5316644;27;20286;-82
2024/04/16 03:48:48;;;;;;;11.33;5.90;;;6.50;99.90;;;;;;5306395;27;20274;-82
2024/04/16 03:51:17;;;;;;;11.27;5.93;;;6.50;99.90;;;;;;5306253;27;20257;-79
2024/04/16 03:53:43;;;;;;;14.07;6.00;;;6.60;99.90;;;;;;5316060;27;20243;-80
2024/04/16 03:56:11;;;;;;;13.33;6.27;;;6.70;99.90;;;;;;5306230;27;20283;-79
2024/04/16 03:58:53;;;;;;;12.30;5.03;;;6.70;99.90;;;;;;5314412;27;20251;-81
2024/04/16 04:01:22;;;;;;;12.43;4.87;;;6.70;1.00;;;;;;5316715;27;20243;-82
2024/04/16 04:03:51;;;;;;;14.37;5.23;;;6.70;11.50;;;;;;5312358;27;20253;-80
2024/04/16 04:06:17;;;;;;;13.83;4.63;;;6.70;1.00;;;;;;5308304;27;20236;-79
2024/04/16 04:08:45;;;;;;;8.97;5.00;;;6.70;53.80;;;;;;5312616;27;20293;-79
2024/04/16 04:11:11;;;;;;;12.50;5.47;;;6.70;99.90;;;;;;5312024;27;20240;-81
2024/04/16 04:13:43;;;;;;;13.73;5.50;;;6.70;1.00;;;;;;5299573;26;20284;-82
2024/04/16 04:16:08;;;;;;;11.67;4.83;;;6.70;1.00;;;;;;5305526;27;20303;-81
2024/04/16 04:18:37;;;;;;;13.97;5.63;;;6.70;1.00;;;;;;5309146;27;20255;-82
2024/04/16 04:21:04;;;;;;;12.67;4.70;;;6.70;1.00;;;;;;5315799;27;20697;-81
2024/04/16 04:23:32;;;;;;;10.20;4.93;;;6.70;1.00;;;;;;5312270;27;20285;-80
2024/04/16 04:25:58;;;;;;;9.10;4.53;;;6.70;1.00;;;;;;5315831;27;20295;-83
2024/04/16 04:28:27;;;;;;;10.73;4.40;;;6.70;1.00;;;;;;5312572;27;20290;-81
2024/04/16 04:31:12;;;;;;;14.17;4.17;;;6.60;1.00;;;;;;5317193;27;20290;-81
2024/04/16 04:33:41;;;;;;;11.60;4.40;;;6.60;1.00;;;;;;5311016;27;20239;-79
2024/04/16 04:36:07;;;;;;;10.03;4.27;;;6.60;1.00;;;;;;5315615;27;20244;-80
2024/04/16 04:38:36;;;;;;;14.00;4.60;;;6.60;1.00;;;;;;5313339;26;20251;-81
2024/04/16 04:41:02;;;;;;;7.90;3.80;;;6.60;1.00;;;;;;5315095;27;20293;-81
2024/04/16 04:43:30;;;;;;;10.30;3.57;;;6.70;1.00;;;;;;5312440;27;20330;-82
2024/04/16 04:45:59;;;;;;;8.20;3.90;;;6.70;1.00;;;;;;5306263;27;20247;-80
2024/04/16 04:48:27;;;;;;;10.40;3.70;;;6.70;1.00;;;;;;5313699;27;20738;-79
2024/04/16 04:50:53;;;;;;;7.60;4.50;;;6.70;1.00;;;;;;5314939;27;20243;-82
2024/04/16 04:53:22;;;;;;;6.83;3.30;;;6.60;1.00;;;;;;5314145;26;20298;-81
2024/04/16 04:55:48;;;;;;;13.30;4.13;;;6.70;1.00;;;;;;5295228;27;20571;-82
2024/04/16 04:58:16;;;;;;;10.77;3.73;;;6.70;1.00;;;;;;5303299;27;20308;-81
2024/04/16 05:00:42;;;;;;;11.13;3.80;;;6.70;1.00;;;;;;5313958;26;20290;-80
2024/04/16 05:03:14;;;;;;;9.00;3.33;;;6.80;1.00;;;;;;5315194;27;20239;-80
2024/04/16 05:05:43;;;;;;;7.03;3.13;;;6.70;1.00;;;;;;5311425;27;20311;-79
2024/04/16 05:08:12;;;;;;;7.90;3.40;;;6.70;1.00;;;;;;5315204;27;20248;-80
2024/04/16 05:10:38;;;;;;;8.60;3.23;;;6.70;1.00;;;;;;5305510;27;20260;-80
2024/04/16 05:13:07;;;;;;;9.67;3.83;;;6.70;1.00;;;;;;5307766;27;20852;-79
2024/04/16 05:15:33;;;;;;;8.27;3.30;;;6.80;99.90;;;;;;5314273;27;20240;-82
2024/04/16 05:18:02;;;;;;;7.77;2.97;;;6.90;99.90;;;;;;5304352;27;20302;-80
2024/04/16 05:20:31;;;;;;;8.33;3.13;;;6.90;99.90;;;;;;5306861;27;20240;-80
2024/04/16 05:23:00;;;;;;;9.23;2.90;;;7.00;99.90;;;;;;5315517;27;20286;-82
2024/04/16 05:25:26;;;;;;;6.37;3.00;;;7.00;99.90;;;;;;5314461;27;20624;-83
2024/04/16 05:27:54;;;;;;;9.73;3.07;;;7.00;99.90;;;;;;5313925;27;20256;-82
2024/04/16 05:30:20;;;;;;;10.67;3.37;;;7.00;99.90;;;;;;5303718;27;20247;-79
2024/04/16 05:32:49;;;;;;;11.23;3.10;;;7.00;99.90;;;;;;5314965;27;20290;-79
2024/04/16 05:35:16;;;;;;;9.43;3.20;;;7.00;99.90;;;;;;5313256;27;20274;-80
2024/04/16 05:37:47;;;;;;;5.07;3.10;;;7.00;99.90;;;;;;5314622;27;20263;-82
2024/04/16 05:40:14;;;;;;;7.60;3.30;;;7.10;99.90;;;;;;5308087;27;20248;-81
2024/04/16 05:42:44;;;;;;;8.83;3.30;;;7.10;93.70;;;;;;5310316;27;20249;-82
2024/04/16 05:45:10;;;;;;;4.30;2.90;;;7.10;61.20;;;;;;5314933;27;20321;-80
2024/04/16 05:47:38;;;;;;;5.97;3.27;;;7.10;92.90;;;;;;5317983;27;20335;-82
2024/04/16 05:50:05;;;;;;;10.93;3.40;;;7.20;99.90;;;;;;5316646;27;20240;-82
2024/04/16 05:52:34;;;;;;;8.70;2.93;;;7.20;28.30;;;;;;5318336;27;20256;-80
2024/04/16 05:55:02;;;;;;;7.70;3.57;;;7.20;42.90;;;;;;5318058;26;20733;-81
2024/04/16 05:57:31;;;;;;;7.07;3.70;;;7.70;30.80;;;;;;5318651;27;20248;-80
2024/04/16 05:59:57;;;;;;;6.03;3.50;;;7.80;1.00;;;;;;5312527;26;20253;-82
2024/04/16 06:02:25;;;;;;;8.10;3.93;;;7.70;1.00;;;;;;5298234;27;20253;-82
2024/04/16 06:04:51;;;;;;;9.00;3.40;;;7.70;1.00;;;;;;5311880;27;20257;-78
2024/04/16 06:07:20;;;;;;;6.27;3.57;;;7.60;1.00;;;;;;5317948;27;20248;-79
2024/04/16 06:09:46;;;;;;;6.47;3.30;;;7.70;1.00;;;;;;5317147;26;20247;-80
2024/04/16 06:12:17;;;;;;;6.17;3.37;;;7.80;1.00;;;;;;5308876;27;20308;-81
2024/04/16 06:14:43;;;;;;;4.60;2.73;;;7.70;1.00;;;;;;5317018;27;20239;-82
2024/04/16 06:17:12;;;;;;;6.17;3.33;;;7.60;1.00;;;;;;5316543;27;20255;-81
2024/04/16 06:19:38;;;;;;;6.30;4.03;;;7.50;1.00;;;;;;5317053;27;20666;-80
2024/04/16 06:22:07;;;;;;;6.07;3.73;;;7.60;1.00;;;;;;5312896;27;20294;-79
2024/04/16 06:24:34;;;;;;;9.10;3.90;;;7.70;1.00;;;;;;5316022;27;20295;-82
2024/04/16 06:27:03;;;;;;;6.83;3.43;;;7.80;1.00;;;;;;5309661;27;20722;-81
2024/04/16 06:29:31;;;;;;;4.80;3.70;;;7.70;1.00;;;;;;5310298;27;20286;-82
2024/04/16 06:32:01;;;;;;;6.07;3.50;;;7.70;1.00;;;;;;5309607;27;20738;-81
2024/04/16 06:34:27;;;;;;;8.63;3.47;;;7.70;1.00;;;;;;5315935;27;20350;-80
2024/04/16 06:36:55;;;;;;;7.13;3.57;;;7.70;1.00;;;;;;5316136;27;20255;-81
2024/04/16 06:39:21;;;;;;;7.80;3.17;;;7.70;1.00;;;;;;5316968;26;20285;-80
2024/04/16 06:41:50;;;;;;;6.60;3.47;;;7.70;1.00;;;;;;5312652;27;20244;-81
2024/04/16 06:44:16;;;;;;;6.93;3.40;;;7.80;1.00;;;;;;5311920;27;20286;-80
2024/04/16 06:46:47;;;;;;;5.47;3.60;;;7.80;1.00;;;;;;5314942;27;20252;-82
2024/04/16 06:49:13;;;;;;;5.43;3.27;;;7.80;1.00;;;;;;5315911;27;20785;-81
2024/04/16 06:51:42;;;;;;;6.90;3.00;;;7.70;1.00;;;;;;5312533;27;20315;-80
2024/04/16 06:54:08;;;;;;;5.23;3.10;;;7.70;1.00;;;;;;5312850;27;20291;-80
2024/04/16 06:56:36;;;;;;;6.80;3.00;;;7.70;1.00;;;;;;5313862;27;20252;-80
2024/04/16 06:59:02;;;;;;;5.43;3.27;;;7.60;1.00;;;;;;5313142;27;20360;-82
2024/04/16 07:01:31;;;;;;;5.67;2.70;;;7.50;1.00;;;;;;5314270;27;20764;-80
2024/04/16 07:04:00;;;;;;;4.23;3.00;;;7.50;1.00;;;;;;5315442;27;20247;-80
2024/04/16 07:06:28;;;;;;;5.50;2.90;;;7.60;1.00;;;;;;5315088;27;20248;-78
2024/04/16 07:08:54;;;;;;;5.87;3.30;;;7.60;1.00;;;;;;5310889;26;20248;-78
2024/04/16 07:11:23;;;;;;;7.40;3.27;;;7.60;1.00;;;;;;5305653;27;20789;-80
2024/04/16 07:13:49;;;;;;;5.20;2.80;;;7.50;1.00;;;;;;5316309;27;20243;-81
2024/04/16 07:16:17;;;;;;;6.23;2.73;;;7.40;1.00;;;;;;5316968;27;20295;-81
2024/04/16 07:18:47;;;;;;;6.23;3.00;;;7.40;1.00;;;;;;5305305;26;20289;-80
2024/04/16 07:21:18;;;;;;;3.63;2.67;;;7.40;1.00;;;;;;5311449;27;20248;-81
2024/04/16 07:23:44;;;;;;;5.00;2.90;;;7.30;1.00;;;;;;5312144;27;20820;-82
2024/04/16 07:26:12;;;;;;;4.47;2.37;;;7.40;1.00;;;;;;5314823;27;20244;-83
2024/04/16 07:28:38;;;;;;;4.10;2.67;;;7.40;1.00;;;;;;5314827;27;20301;-81
2024/04/16 07:31:07;;;;;;;5.10;2.27;;;7.50;1.00;;;;;;5293921;27;20706;-82
2024/04/16 07:33:35;;;;;;;3.13;2.60;;;7.50;1.00;;;;;;5315348;27;20290;-80
2024/04/16 07:36:08;;;;;;;4.90;2.40;;;7.50;1.00;;;;;;5316139;27;20879;-79
2024/04/16 07:38:37;;;;;;;3.37;2.60;;;7.60;1.00;;;;;;5297037;27;20282;-82
2024/04/16 07:41:06;;;;;;;5.53;3.57;;;7.70;1.00;;;;;;5308557;27;20703;-81
2024/04/16 07:43:32;;;;;;;4.50;2.77;;;8.10;1.00;;;;;;5314297;27;20621;-81
2024/04/16 07:46:00;;;;;;;4.10;3.07;;;8.60;1.00;;;;;;5306149;27;20365;-79
2024/04/16 07:48:26;;;;;;;7.50;3.23;;;8.90;1.00;;;;;;5309202;27;20244;-80
2024/04/16 07:50:55;;;;;;;4.20;2.80;;;9.50;1.00;;;;;;5314913;27;20294;-78
2024/04/16 07:53:21;;;;;;;5.03;2.80;;;9.60;1.00;;;;;;5304922;27;20294;-78
2024/04/16 07:55:52;;;;;;;4.60;2.77;;;9.20;1.00;;;;;;5312749;27;20244;-78
2024/04/16 07:58:18;;;;;;;5.47;2.50;;;8.80;1.00;;;;;;5314130;27;20239;-78
2024/04/16 08:00:47;;;;;;;5.30;2.90;;;8.60;1.00;;;;;;5307507;27;20287;-81
2024/04/16 08:03:13;;;;;;;6.20;2.53;;;8.60;1.00;;;;;;5312644;27;20243;-81
2024/04/16 08:05:42;;;;;;;3.60;2.63;;;8.70;1.00;;;;;;5312221;27;20278;-81
2024/04/16 08:08:08;;;;;;;3.37;2.60;;;8.60;1.00;;;;;;5312027;27;20762;-81
2024/04/16 08:10:36;;;;;;;3.20;2.60;;;8.60;1.00;;;;;;5312055;27;20239;-82
2024/04/16 08:13:06;;;;;;;3.90;2.30;;;8.50;1.00;;;;;;5312267;27;20417;-81
2024/04/16 08:15:35;;;;;;;4.30;2.53;;;8.80;1.00;;;;;;5298108;27;20822;-82
2024/04/16 08:18:01;;;;;;;3.30;2.60;;;9.00;1.00;;;;;;5309368;27;20656;-79
2024/04/16 08:20:29;;;;;;;5.10;2.30;;;9.20;1.00;;;;;;5310679;27;20835;-78
2024/04/16 08:22:55;;;;;;;3.43;2.37;;;9.60;99.90;;;;;;5315137;26;20330;-81
2024/04/16 08:25:24;;;;;;;3.17;2.20;;;9.90;99.90;;;;;;5314023;26;20240;-80
2024/04/16 08:27:50;;;;;;;6.00;2.57;;;10.10;99.90;;;;;;5314834;26;20248;-81
2024/04/16 08:30:22;;;;;;;2.90;2.27;;;9.90;99.90;;;;;;5314596;27;20247;-81
2024/04/16 08:32:48;;;;;;;4.60;2.20;;;10.30;99.90;;;;;;5316298;27;20726;-78
2024/04/16 08:35:27;;;;;;;4.23;1.93;;;10.50;99.90;;;;;;5309706;27;20245;-78
2024/04/16 08:37:53;;;;;;;3.37;2.03;;;10.20;99.90;;;;;;5314562;26;20298;-81
2024/04/16 08:40:22;;;;;;;3.93;2.03;;;10.10;78.10;;;;;;5306182;27;20587;-80
2024/04/16 08:42:51;;;;;;;3.20;2.00;;;9.90;99.90;;;;;;5296995;27;20295;-80
2024/04/16 08:45:24;;;;;;;5.83;2.33;;;9.70;99.90;;;;;;5306820;27;20361;-80
2024/04/16 08:47:52;;;;;;;2.70;2.33;;;10.00;94.90;;;;;;5302498;27;20295;-80
2024/04/16 08:50:22;;;;;;;3.43;2.03;;;10.10;58.00;;;;;;5313557;27;20318;-79
2024/04/16 08:52:50;;;;;;;4.47;2.43;;;10.40;16.10;;;;;;5299721;27;20256;-81
2024/04/16 08:55:20;;;;;;;3.60;1.90;;;10.40;1.00;;;;;;5307526;27;20535;-78
2024/04/16 08:57:46;;;;;;;3.77;2.10;;;11.00;1.00;;;;;;5310151;27;20290;-78
2024/04/16 09:00:17;;;;;;;3.77;2.20;;;11.00;1.00;;;;;;5310979;27;20345;-80
2024/04/16 09:02:46;;;;;;;6.53;2.57;;;10.80;1.00;;;;;;5311491;27;20255;-80
2024/04/16 09:05:15;;;;;;;2.67;2.20;;;10.60;1.00;;;;;;5310002;27;20240;-81
2024/04/16 09:07:40;;;;;;;2.33;2.00;;;10.90;1.00;;;;;;5314145;27;20255;-79
2024/04/16 09:10:16;;;;;;;3.30;2.10;;;10.70;1.00;;;;;;5313938;27;20277;-77
2024/04/16 09:12:43;;;;;;;5.60;2.30;;;10.50;1.00;;;;;;5313176;27;20348;-80
2024/04/16 09:15:13;;;;;;;4.43;1.80;;;10.30;1.00;;;;;;5313778;27;20289;-81
2024/04/16 09:17:49;;;;;;;2.40;1.80;;;10.30;1.00;;;;;;5314832;27;20586;-82
2024/04/16 09:20:19;;;;;;;3.83;2.10;;;10.30;1.00;;;;;;5307028;27;20244;-80
2024/04/16 09:22:47;;;;;;;2.40;2.20;;;10.60;1.00;;;;;;5317928;27;20247;-79
2024/04/16 09:25:15;;;;;;;3.60;1.87;;;10.70;1.00;;;;;;5311011;27;20240;-81
2024/04/16 09:27:44;;;;;;;2.63;1.73;;;11.40;1.00;;;;;;5316118;27;20252;-79
2024/04/16 09:30:14;;;;;;;2.30;2.10;;;11.50;1.00;;;;;;5304801;27;20311;-81
2024/04/16 09:32:42;;;;;;;3.40;1.93;;;11.30;1.00;;;;;;5317453;26;20585;-80
2024/04/16 09:35:15;;;;;;;4.53;2.13;;;11.50;1.00;;;;;;5316836;27;20244;-79
2024/04/16 09:37:42;;;;;;;3.77;1.67;;;11.50;1.00;;;;;;5317347;27;20255;-80
2024/04/16 09:40:11;;;;;;;3.00;1.90;;;11.10;1.00;;;;;;5307689;27;20260;-79
2024/04/16 09:42:38;;;;;;;3.77;1.83;;;10.80;1.00;;;;;;5301487;27;20823;-79
2024/04/16 09:45:08;;;;;;;4.43;2.03;;;11.00;1.00;;;;;;5302276;27;20279;-79
2024/04/16 09:47:35;;;;;;;4.13;2.30;;;11.90;1.00;;;;;;5305794;27;20243;-79
2024/04/16 09:50:04;;;;;;;4.93;1.80;;;12.30;1.00;;;;;;5301236;27;20309;-76
2024/04/16 09:52:34;;;;;;;4.17;2.20;;;12.10;1.00;;;;;;5306710;27;20244;-80
2024/04/16 09:55:05;;;;;;;2.67;1.70;;;12.10;1.00;;;;;;5314068;27;20362;-82
2024/04/16 09:57:32;;;;;;;3.20;1.47;;;12.00;1.00;;;;;;5312858;27;20311;-81
2024/04/16 10:00:03;;;;;;;3.10;1.67;;;11.50;1.00;;;;;;5311185;27;20328;-82
2024/04/16 10:02:32;;;;;;;2.83;1.80;;;11.80;1.00;;;;;;5317044;27;20748;-80
2024/04/16 10:05:02;;;;;;;3.90;2.37;;;11.70;1.00;;;;;;5314273;27;20248;-78
2024/04/16 10:07:29;;;;;;;4.10;2.23;;;11.50;1.00;;;;;;5315053;26;20293;-82
2024/04/16 10:10:00;;;;;;;3.57;1.73;;;11.90;1.00;;;;;;5313074;27;20286;-80
2024/04/16 10:12:27;;;;;;;3.00;1.90;;;12.00;1.00;;;;;;5311242;27;20623;-80
2024/04/16 10:14:57;;;;;;;1.90;1.70;;;12.00;1.00;;;;;;5314059;27;20738;-78
2024/04/16 10:17:25;;;;;;;4.43;1.63;;;11.60;1.00;;;;;;5318438;27;20251;-81
2024/04/16 10:19:54;;;;;;;4.73;1.93;;;11.40;1.00;;;;;;5315796;27;21009;-81
2024/04/16 10:22:20;;;;;;;4.43;1.63;;;11.50;1.00;;;;;;5315898;27;20290;-81
2024/04/16 10:24:55;;;;;;;3.50;1.97;;;11.30;1.00;;;;;;5317925;27;20248;-82
2024/04/16 10:27:25;;;;;;;4.20;1.50;;;11.40;1.00;;;;;;5313493;27;20291;-82
2024/04/16 10:30:09;;;;;;;2.93;1.57;;;11.10;1.00;;;;;;5316975;27;20310;-82
2024/04/16 10:32:42;;;;;;;3.80;1.73;;;11.10;1.00;;;;;;5306634;27;20303;-79
2024/04/16 10:35:12;;;;;;;1.80;1.40;;;11.20;1.00;;;;;;5315882;27;20300;-78
2024/04/16 10:37:38;;;;;;;4.33;1.60;;;11.10;1.00;;;;;;5317056;26;20301;-82
2024/04/16 10:40:08;;;;;;;3.23;1.20;;;11.10;1.00;;;;;;5306585;27;20249;-81
2024/04/16 10:42:41;;;;;;;2.70;1.47;;;10.90;1.00;;;;;;5297745;27;20310;-82
2024/04/16 10:45:10;;;;;;;2.33;1.50;;;11.00;1.00;;;;;;5300101;27;20248;-81
2024/04/16 10:47:36;;;;;;;2.63;1.33;;;11.10;1.00;;;;;;5304226;27;20245;-80
2024/04/16 10:50:06;;;;;;;1.10;1.00;;;11.20;1.00;;;;;;5296433;27;20327;-79
2024/04/16 10:52:32;;;;;;;2.07;1.20;;;11.30;1.00;;;;;;5303558;27;20248;-81
2024/04/16 10:55:02;;;;;;;1.27;1.03;;;11.40;1.00;;;;;;5304494;27;20766;-78
2024/04/16 10:57:28;;;;;;;1.70;1.20;;;11.20;1.00;;;;;;5301021;27;20247;-77
2024/04/16 11:00:00;;;;;;;2.37;1.10;;;11.60;1.00;;;;;;5307387;27;20282;-81
2024/04/16 11:02:26;;;;;;;2.03;1.20;;;11.80;1.00;;;;;;5305877;27;20571;-81
2024/04/16 11:04:55;;;;;;;1.17;1.07;;;11.70;1.00;;;;;;5303579;27;20243;-80
2024/04/16 11:07:21;;;;;;;1.30;1.10;;;11.70;1.00;;;;;;5306343;27;20302;-77
2024/04/16 11:09:50;;;;;;;2.10;1.17;;;11.40;1.00;;;;;;5308287;27;20247;-79
2024/04/16 11:12:16;;;;;;;1.53;1.20;;;11.40;1.00;;;;;;5311075;27;20245;-77
2024/04/16 11:14:47;;;;;;;0.93;0.90;;;11.30;1.00;;;;;;5310613;27;20273;-78
2024/04/16 11:17:17;;;;;;;1.53;1.00;;;11.30;1.00;;;;;;5310109;27;20253;-81
2024/04/16 11:19:47;;;;;;;1.30;0.73;;;11.20;1.00;;;;;;5313565;26;20244;-81
2024/04/16 11:22:14;;;;;;;1.13;0.43;;;11.20;1.00;;;;;;5304009;27;20299;-82
2024/04/16 11:24:43;;;;;;;0.43;0.30;;;11.00;1.00;;;;;;5308175;27;20243;-80
2024/04/16 11:27:11;;;;;;;0.87;0.50;;;10.90;1.00;;;;;;5311764;26;20726;-81
2024/04/16 11:29:49;;;;;;;0.40;0.40;;;10.90;1.00;;;;;;5311923;27;20284;-80
2024/04/16 11:32:18;;;;;;;0.57;0.40;;;10.90;1.00;;;;;;5316636;27;20633;-81
2024/04/16 11:34:47;;;;;;;1.03;0.67;;;10.80;1.00;;;;;;5318813;27;20248;-79
2024/04/16 11:37:14;;;;;;;2.10;0.90;;;10.80;1.00;;;;;;5303819;27;20379;-81
2024/04/16 11:39:43;;;;;;;0.80;0.70;;;10.80;1.00;;;;;;5308325;27;20310;-82
2024/04/16 11:42:11;;;;;;;0.53;0.27;;;10.60;1.00;;;;;;5309448;27;20253;-77
2024/04/16 11:44:40;;;;;;;0.20;0.20;;;10.60;1.00;;;;;;5306151;27;20285;-77
2024/04/16 11:47:08;;;;;;;0.20;0.20;;;10.60;1.00;;;;;;5291560;27;20291;-81
2024/04/16 11:49:40;;;;;;;0.30;0.10;;;10.60;1.00;;;;;;5311198;27;20264;-83
2024/04/16 11:52:07;;;;;;;0.90;0.33;;;10.70;1.00;;;;;;5309456;27;20239;-79
2024/04/16 11:54:36;;;;;;;1.60;0.53;;;10.60;1.00;;;;;;5308293;27;20294;-80
2024/04/16 11:57:03;;;;;;;2.20;0.40;;;10.40;1.00;;;;;;5300143;27;20272;-82
2024/04/16 11:59:32;;;;;;;1.33;0.50;;;10.40;1.00;;;;;;5308847;27;20602;-78
2024/04/16 12:01:58;;;;;;;0.57;0.50;;;10.20;1.00;;;;;;5297994;27;20287;-82
2024/04/16 12:04:27;;;;;;;1.33;0.60;;;10.20;1.00;;;;;;5307917;26;20742;-80
2024/04/16 12:06:55;;;;;;;0.87;0.60;;;10.20;1.00;;;;;;5308239;27;20286;-81
2024/04/16 12:09:24;;;;;;;1.00;0.73;;;10.30;1.00;;;;;;5313764;27;20289;-78
2024/04/16 12:11:51;;;;;;;1.83;0.90;;;10.30;99.90;;;;;;5312699;27;20251;-81
2024/04/16 12:14:20;;;;;;;0.70;0.70;;;10.20;99.90;;;;;;5307181;27;20260;-81
2024/04/16 12:16:47;;;;;;;0.87;0.70;;;10.10;99.90;;;;;;5314461;27;20306;-82
2024/04/16 12:19:16;;;;;;;2.10;0.80;;;9.90;1.00;;;;;;5308314;27;20581;-82
2024/04/16 12:21:42;;;;;;;0.90;0.90;;;10.00;9.40;;;;;;5312278;27;20282;-80
2024/04/16 12:24:13;;;;;;;1.03;1.00;;;10.00;1.00;;;;;;5309325;27;22159;-81
2024/04/16 12:26:39;;;;;;;1.70;1.20;;;9.90;11.40;;;;;;5315012;27;20796;-81
2024/04/16 12:29:08;;;;;;;1.87;0.90;;;9.70;99.90;;;;;;5303551;27;20299;-80
2024/04/16 12:31:34;;;;;;;1.87;0.70;;;9.80;99.90;;;;;;5309663;26;20286;-82
2024/04/16 12:34:02;;;;;;;0.63;0.40;;;9.70;99.90;;;;;;5309485;27;20243;-80
2024/04/16 12:36:29;;;;;;;1.30;0.30;;;9.60;1.00;;;;;;5311452;27;20340;-80
2024/04/16 12:38:57;;;;;;;0.30;0.30;;;9.60;1.00;;;;;;5311299;27;20251;-79
2024/04/16 12:41:26;;;;;;;1.53;0.40;;;9.80;99.90;;;;;;5303850;27;20247;-81
2024/04/16 12:43:55;;;;;;;0.40;0.20;;;10.00;99.90;;;;;;5302623;27;20247;-81
2024/04/16 12:46:21;;;;;;;0.73;0.30;;;10.30;1.00;;;;;;5311241;27;20771;-80
2024/04/16 12:48:50;;;;;;;0.40;0.40;;;9.80;77.60;;;;;;5310561;27;20374;-80
2024/04/16 12:51:16;;;;;;;0.50;0.43;;;9.90;1.00;;;;;;5300638;27;20286;-80
2024/04/16 12:53:44;;;;;;;0.80;0.80;;;10.00;99.90;;;;;;5306296;27;20251;-78
2024/04/16 12:56:12;;;;;;;1.20;0.90;;;10.10;99.90;;;;;;5285974;27;20252;-79
2024/04/16 12:58:44;;;;;;;1.00;0.83;;;10.00;1.00;;;;;;5289289;27;20296;-81
2024/04/16 13:01:10;;;;;;;0.43;0.43;;;9.80;1.00;;;;;;5291282;27;20255;-79
2024/04/16 13:03:39;;;;;;;0.60;0.60;;;10.00;99.90;;;;;;5306809;27;20285;-80
2024/04/16 13:06:05;;;;;;;1.23;0.50;;;10.00;1.00;;;;;;5305656;27;20256;-79